sensor_id;sensor_type;location;lat;lon;timestamp;P1;durP1;ratioP1;P2;durP2;ratioP2
22778;SDS011;11556;51.194;3.800;2023-03-20T00:01:54;26.55;;;13.00;;
22778;SDS011;11556;51.194;3.800;2023-03-20T00:04:20;31.48;;;13.15;;
22778;SDS011;11556;51.194;3.800;2023-03-20T00:06:47;26.88;;;13.13;;
22778;SDS011;11556;51.194;3.800;2023-03-20T00:09:12;32.20;;;13.43;;
22778;SDS011;11556;51.194;3.800;2023-03-20T00:11:43;26.65;;;13.98;;
22778;SDS011;11556;51.194;3.800;2023-03-20T00:14:13;29.52;;;14.40;;
22778;SDS011;11556;51.194;3.800;2023-03-20T00:16:44;28.85;;;15.15;;
22778;SDS011;11556;51.194;3.800;2023-03-20T00:21:41;31.20;;;16.02;;
22778;SDS011;11556;51.194;3.800;2023-03-20T00:24:09;34.35;;;17.63;;
22778;SDS011;11556;51.194;3.800;2023-03-20T00:26:35;31.88;;;16.98;;
22778;SDS011;11556;51.194;3.800;2023-03-20T00:29:02;33.65;;;18.17;;
22778;SDS011;11556;51.194;3.800;2023-03-20T00:31:35;31.75;;;16.52;;
22778;SDS011;11556;51.194;3.800;2023-03-20T00:34:04;30.90;;;15.30;;
22778;SDS011;11556;51.194;3.800;2023-03-20T00:36:34;25.67;;;14.98;;
22778;SDS011;11556;51.194;3.800;2023-03-20T00:38:59;25.40;;;15.35;;
22778;SDS011;11556;51.194;3.800;2023-03-20T00:46:55;26.42;;;14.38;;
22778;SDS011;11556;51.194;3.800;2023-03-20T00:49:27;26.42;;;14.25;;
22778;SDS011;11556;51.194;3.800;2023-03-20T00:51:56;30.23;;;15.07;;
22778;SDS011;11556;51.194;3.800;2023-03-20T00:54:22;33.80;;;14.82;;
22778;SDS011;11556;51.194;3.800;2023-03-20T00:57:11;30.10;;;14.60;;
22778;SDS011;11556;51.194;3.800;2023-03-20T00:59:47;29.63;;;14.35;;
22778;SDS011;11556;51.194;3.800;2023-03-20T01:02:19;27.45;;;14.20;;
22778;SDS011;11556;51.194;3.800;2023-03-20T01:04:47;22.67;;;13.68;;
22778;SDS011;11556;51.194;3.800;2023-03-20T01:07:13;31.85;;;13.50;;
22778;SDS011;11556;51.194;3.800;2023-03-20T01:09:40;26.73;;;13.90;;
22778;SDS011;11556;51.194;3.800;2023-03-20T01:12:06;25.20;;;13.38;;
22778;SDS011;11556;51.194;3.800;2023-03-20T01:14:34;27.70;;;13.75;;
22778;SDS011;11556;51.194;3.800;2023-03-20T01:17:00;23.33;;;12.90;;
22778;SDS011;11556;51.194;3.800;2023-03-20T01:19:25;26.15;;;12.43;;
22778;SDS011;11556;51.194;3.800;2023-03-20T01:21:51;27.83;;;11.95;;
22778;SDS011;11556;51.194;3.800;2023-03-20T01:24:17;22.45;;;12.43;;
22778;SDS011;11556;51.194;3.800;2023-03-20T01:26:43;28.70;;;12.43;;
22778;SDS011;11556;51.194;3.800;2023-03-20T01:29:21;35.38;;;12.30;;
22778;SDS011;11556;51.194;3.800;2023-03-20T01:31:51;31.52;;;13.00;;
22778;SDS011;11556;51.194;3.800;2023-03-20T01:34:18;27.70;;;12.45;;
22778;SDS011;11556;51.194;3.800;2023-03-20T01:36:47;27.35;;;12.15;;
22778;SDS011;11556;51.194;3.800;2023-03-20T01:39:17;29.35;;;12.63;;
22778;SDS011;11556;51.194;3.800;2023-03-20T01:41:48;28.45;;;11.48;;
22778;SDS011;11556;51.194;3.800;2023-03-20T01:44:18;26.25;;;11.18;;
22778;SDS011;11556;51.194;3.800;2023-03-20T01:46:49;23.45;;;11.25;;
22778;SDS011;11556;51.194;3.800;2023-03-20T01:51:48;26.83;;;10.95;;
22778;SDS011;11556;51.194;3.800;2023-03-20T01:54:22;33.10;;;11.02;;
22778;SDS011;11556;51.194;3.800;2023-03-20T01:59:44;30.48;;;10.45;;
22778;SDS011;11556;51.194;3.800;2023-03-20T02:02:13;29.70;;;10.68;;
22778;SDS011;11556;51.194;3.800;2023-03-20T02:04:44;23.67;;;10.60;;
22778;SDS011;11556;51.194;3.800;2023-03-20T02:07:12;26.77;;;10.95;;
22778;SDS011;11556;51.194;3.800;2023-03-20T02:09:40;26.17;;;10.90;;
22778;SDS011;11556;51.194;3.800;2023-03-20T02:12:06;29.38;;;10.93;;
22778;SDS011;11556;51.194;3.800;2023-03-20T02:14:32;22.17;;;10.00;;
22778;SDS011;11556;51.194;3.800;2023-03-20T02:17:08;27.40;;;10.52;;
22778;SDS011;11556;51.194;3.800;2023-03-20T02:34:07;27.52;;;11.15;;
22778;SDS011;11556;51.194;3.800;2023-03-20T02:36:47;27.98;;;11.10;;
22778;SDS011;11556;51.194;3.800;2023-03-20T02:39:26;25.25;;;10.85;;
22778;SDS011;11556;51.194;3.800;2023-03-20T02:47:28;26.70;;;10.45;;
22778;SDS011;11556;51.194;3.800;2023-03-20T02:52:38;24.27;;;11.55;;
22778;SDS011;11556;51.194;3.800;2023-03-20T03:00:39;21.73;;;10.07;;
22778;SDS011;11556;51.194;3.800;2023-03-20T03:03:17;25.73;;;9.75;;
22778;SDS011;11556;51.194;3.800;2023-03-20T03:05:51;23.13;;;9.25;;
22778;SDS011;11556;51.194;3.800;2023-03-20T03:08:34;25.77;;;9.93;;
22778;SDS011;11556;51.194;3.800;2023-03-20T03:11:07;24.05;;;9.40;;
22778;SDS011;11556;51.194;3.800;2023-03-20T03:13:44;30.17;;;10.32;;
22778;SDS011;11556;51.194;3.800;2023-03-20T03:16:14;21.83;;;9.30;;
22778;SDS011;11556;51.194;3.800;2023-03-20T03:18:43;19.25;;;9.15;;
22778;SDS011;11556;51.194;3.800;2023-03-20T03:21:11;27.13;;;9.68;;
22778;SDS011;11556;51.194;3.800;2023-03-20T03:23:42;25.52;;;9.50;;
22778;SDS011;11556;51.194;3.800;2023-03-20T03:26:12;21.00;;;9.45;;
22778;SDS011;11556;51.194;3.800;2023-03-20T03:28:49;28.95;;;8.93;;
22778;SDS011;11556;51.194;3.800;2023-03-20T03:31:19;19.88;;;8.65;;
22778;SDS011;11556;51.194;3.800;2023-03-20T03:33:49;26.00;;;8.77;;
22778;SDS011;11556;51.194;3.800;2023-03-20T03:39:24;22.53;;;9.77;;
22778;SDS011;11556;51.194;3.800;2023-03-20T03:42:08;24.30;;;9.25;;
22778;SDS011;11556;51.194;3.800;2023-03-20T03:45:14;22.30;;;9.27;;
22778;SDS011;11556;51.194;3.800;2023-03-20T03:47:44;29.55;;;9.00;;
22778;SDS011;11556;51.194;3.800;2023-03-20T03:50:39;27.98;;;8.88;;
22778;SDS011;11556;51.194;3.800;2023-03-20T03:53:13;26.75;;;9.20;;
22778;SDS011;11556;51.194;3.800;2023-03-20T03:55:44;25.70;;;8.80;;
22778;SDS011;11556;51.194;3.800;2023-03-20T03:58:22;22.38;;;9.13;;
22778;SDS011;11556;51.194;3.800;2023-03-20T04:00:56;25.77;;;8.48;;
22778;SDS011;11556;51.194;3.800;2023-03-20T04:03:24;26.92;;;9.13;;
22778;SDS011;11556;51.194;3.800;2023-03-20T04:05:54;24.67;;;8.93;;
22778;SDS011;11556;51.194;3.800;2023-03-20T04:08:22;23.95;;;9.55;;
22778;SDS011;11556;51.194;3.800;2023-03-20T04:10:47;17.85;;;8.80;;
22778;SDS011;11556;51.194;3.800;2023-03-20T04:13:13;25.42;;;9.13;;
22778;SDS011;11556;51.194;3.800;2023-03-20T04:15:40;24.85;;;9.25;;
22778;SDS011;11556;51.194;3.800;2023-03-20T04:18:06;29.98;;;9.65;;
22778;SDS011;11556;51.194;3.800;2023-03-20T04:20:32;21.27;;;9.10;;
22778;SDS011;11556;51.194;3.800;2023-03-20T04:22:57;28.67;;;10.38;;
22778;SDS011;11556;51.194;3.800;2023-03-20T04:25:24;29.13;;;10.20;;
22778;SDS011;11556;51.194;3.800;2023-03-20T04:27:53;21.95;;;8.90;;
22778;SDS011;11556;51.194;3.800;2023-03-20T04:30:19;28.13;;;9.30;;
22778;SDS011;11556;51.194;3.800;2023-03-20T04:32:46;19.92;;;9.13;;
22778;SDS011;11556;51.194;3.800;2023-03-20T04:35:12;24.63;;;9.00;;
22778;SDS011;11556;51.194;3.800;2023-03-20T04:37:38;25.35;;;8.77;;
22778;SDS011;11556;51.194;3.800;2023-03-20T04:40:03;25.08;;;8.77;;
22778;SDS011;11556;51.194;3.800;2023-03-20T04:42:29;22.85;;;8.95;;
22778;SDS011;11556;51.194;3.800;2023-03-20T04:44:55;27.13;;;8.57;;
22778;SDS011;11556;51.194;3.800;2023-03-20T04:47:20;25.65;;;8.90;;
22778;SDS011;11556;51.194;3.800;2023-03-20T04:49:46;27.13;;;8.75;;
22778;SDS011;11556;51.194;3.800;2023-03-20T04:52:11;19.67;;;8.07;;
22778;SDS011;11556;51.194;3.800;2023-03-20T04:54:37;25.55;;;8.13;;
22778;SDS011;11556;51.194;3.800;2023-03-20T04:57:03;23.05;;;7.88;;
22778;SDS011;11556;51.194;3.800;2023-03-20T04:59:28;20.70;;;8.52;;
22778;SDS011;11556;51.194;3.800;2023-03-20T05:01:54;25.05;;;8.32;;
22778;SDS011;11556;51.194;3.800;2023-03-20T05:04:19;25.02;;;8.13;;
22778;SDS011;11556;51.194;3.800;2023-03-20T05:06:45;19.55;;;7.43;;
22778;SDS011;11556;51.194;3.800;2023-03-20T05:09:13;21.00;;;7.55;;
22778;SDS011;11556;51.194;3.800;2023-03-20T05:11:40;19.25;;;7.72;;
22778;SDS011;11556;51.194;3.800;2023-03-20T05:14:06;20.13;;;8.48;;
22778;SDS011;11556;51.194;3.800;2023-03-20T05:16:32;23.63;;;7.82;;
22778;SDS011;11556;51.194;3.800;2023-03-20T05:18:59;18.88;;;8.07;;
22778;SDS011;11556;51.194;3.800;2023-03-20T05:21:25;18.40;;;7.78;;
22778;SDS011;11556;51.194;3.800;2023-03-20T05:23:50;18.15;;;7.70;;
22778;SDS011;11556;51.194;3.800;2023-03-20T05:26:16;20.27;;;7.90;;
22778;SDS011;11556;51.194;3.800;2023-03-20T05:28:41;20.77;;;7.90;;
22778;SDS011;11556;51.194;3.800;2023-03-20T05:31:07;25.20;;;7.35;;
22778;SDS011;11556;51.194;3.800;2023-03-20T05:33:33;26.63;;;8.38;;
22778;SDS011;11556;51.194;3.800;2023-03-20T05:35:58;22.38;;;8.18;;
22778;SDS011;11556;51.194;3.800;2023-03-20T05:38:24;26.02;;;8.75;;
22778;SDS011;11556;51.194;3.800;2023-03-20T05:40:54;26.17;;;8.18;;
22778;SDS011;11556;51.194;3.800;2023-03-20T05:43:25;29.10;;;8.25;;
22778;SDS011;11556;51.194;3.800;2023-03-20T05:45:53;22.67;;;8.63;;
22778;SDS011;11556;51.194;3.800;2023-03-20T05:48:22;24.42;;;8.50;;
22778;SDS011;11556;51.194;3.800;2023-03-20T05:50:48;22.80;;;7.45;;
22778;SDS011;11556;51.194;3.800;2023-03-20T05:53:13;23.33;;;8.45;;
22778;SDS011;11556;51.194;3.800;2023-03-20T05:55:39;23.42;;;8.38;;
22778;SDS011;11556;51.194;3.800;2023-03-20T05:58:06;24.05;;;8.43;;
22778;SDS011;11556;51.194;3.800;2023-03-20T06:00:31;25.67;;;8.52;;
22778;SDS011;11556;51.194;3.800;2023-03-20T06:02:57;22.83;;;8.23;;
22778;SDS011;11556;51.194;3.800;2023-03-20T06:05:23;27.75;;;8.73;;
22778;SDS011;11556;51.194;3.800;2023-03-20T06:07:48;26.77;;;9.05;;
22778;SDS011;11556;51.194;3.800;2023-03-20T06:10:14;22.00;;;8.80;;
22778;SDS011;11556;51.194;3.800;2023-03-20T06:12:40;27.13;;;8.70;;
22778;SDS011;11556;51.194;3.800;2023-03-20T06:15:07;28.35;;;8.93;;
22778;SDS011;11556;51.194;3.800;2023-03-20T06:17:32;17.90;;;7.85;;
22778;SDS011;11556;51.194;3.800;2023-03-20T06:19:58;24.27;;;8.73;;
22778;SDS011;11556;51.194;3.800;2023-03-20T06:22:25;23.75;;;7.65;;
22778;SDS011;11556;51.194;3.800;2023-03-20T06:24:50;22.38;;;8.80;;
22778;SDS011;11556;51.194;3.800;2023-03-20T06:27:16;26.75;;;9.45;;
22778;SDS011;11556;51.194;3.800;2023-03-20T06:29:42;28.35;;;12.02;;
22778;SDS011;11556;51.194;3.800;2023-03-20T06:32:08;22.45;;;8.90;;
22778;SDS011;11556;51.194;3.800;2023-03-20T06:34:34;29.60;;;10.57;;
22778;SDS011;11556;51.194;3.800;2023-03-20T06:37:01;22.17;;;8.60;;
22778;SDS011;11556;51.194;3.800;2023-03-20T06:39:27;30.83;;;11.10;;
22778;SDS011;11556;51.194;3.800;2023-03-20T06:41:53;35.65;;;14.95;;
22778;SDS011;11556;51.194;3.800;2023-03-20T06:44:19;20.13;;;8.73;;
22778;SDS011;11556;51.194;3.800;2023-03-20T06:46:45;20.10;;;9.18;;
22778;SDS011;11556;51.194;3.800;2023-03-20T06:49:11;33.90;;;10.68;;
22778;SDS011;11556;51.194;3.800;2023-03-20T06:51:36;28.23;;;11.13;;
22778;SDS011;11556;51.194;3.800;2023-03-20T06:54:03;29.60;;;11.30;;
22778;SDS011;11556;51.194;3.800;2023-03-20T06:56:29;20.33;;;8.52;;
22778;SDS011;11556;51.194;3.800;2023-03-20T06:58:55;26.73;;;7.70;;
22778;SDS011;11556;51.194;3.800;2023-03-20T07:01:21;24.48;;;8.30;;
22778;SDS011;11556;51.194;3.800;2023-03-20T07:03:48;29.23;;;9.15;;
22778;SDS011;11556;51.194;3.800;2023-03-20T07:06:14;35.22;;;13.90;;
22778;SDS011;11556;51.194;3.800;2023-03-20T07:08:42;17.45;;;7.38;;
22778;SDS011;11556;51.194;3.800;2023-03-20T07:11:08;19.50;;;7.28;;
22778;SDS011;11556;51.194;3.800;2023-03-20T07:13:34;19.02;;;6.38;;
22778;SDS011;11556;51.194;3.800;2023-03-20T07:15:59;20.70;;;6.63;;
22778;SDS011;11556;51.194;3.800;2023-03-20T07:18:25;16.98;;;6.40;;
22778;SDS011;11556;51.194;3.800;2023-03-20T07:20:52;18.83;;;6.70;;
22778;SDS011;11556;51.194;3.800;2023-03-20T07:23:19;15.38;;;6.32;;
22778;SDS011;11556;51.194;3.800;2023-03-20T07:25:45;20.45;;;6.80;;
22778;SDS011;11556;51.194;3.800;2023-03-20T07:28:11;21.13;;;6.60;;
22778;SDS011;11556;51.194;3.800;2023-03-20T07:30:36;27.33;;;7.47;;
22778;SDS011;11556;51.194;3.800;2023-03-20T07:33:02;20.95;;;7.18;;
22778;SDS011;11556;51.194;3.800;2023-03-20T07:35:28;18.15;;;7.35;;
22778;SDS011;11556;51.194;3.800;2023-03-20T07:37:53;16.92;;;6.30;;
22778;SDS011;11556;51.194;3.800;2023-03-20T07:40:19;23.00;;;7.85;;
22778;SDS011;11556;51.194;3.800;2023-03-20T07:42:45;20.27;;;7.15;;
22778;SDS011;11556;51.194;3.800;2023-03-20T07:45:11;20.92;;;7.75;;
22778;SDS011;11556;51.194;3.800;2023-03-20T07:47:38;23.58;;;7.32;;
22778;SDS011;11556;51.194;3.800;2023-03-20T07:50:04;18.77;;;6.35;;
22778;SDS011;11556;51.194;3.800;2023-03-20T07:52:30;14.63;;;5.78;;
22778;SDS011;11556;51.194;3.800;2023-03-20T07:54:56;24.42;;;7.18;;
22778;SDS011;11556;51.194;3.800;2023-03-20T07:57:21;17.85;;;5.97;;
22778;SDS011;11556;51.194;3.800;2023-03-20T07:59:47;13.70;;;6.43;;
22778;SDS011;11556;51.194;3.800;2023-03-20T08:02:13;15.50;;;6.05;;
22778;SDS011;11556;51.194;3.800;2023-03-20T08:04:40;18.13;;;7.88;;
22778;SDS011;11556;51.194;3.800;2023-03-20T08:07:06;14.00;;;5.75;;
22778;SDS011;11556;51.194;3.800;2023-03-20T08:09:32;23.95;;;7.47;;
22778;SDS011;11556;51.194;3.800;2023-03-20T08:11:58;15.98;;;5.65;;
22778;SDS011;11556;51.194;3.800;2023-03-20T08:14:24;12.88;;;5.45;;
22778;SDS011;11556;51.194;3.800;2023-03-20T08:16:49;21.25;;;5.75;;
22778;SDS011;11556;51.194;3.800;2023-03-20T08:19:15;19.85;;;7.50;;
22778;SDS011;11556;51.194;3.800;2023-03-20T08:21:41;18.95;;;6.25;;
22778;SDS011;11556;51.194;3.800;2023-03-20T08:24:06;22.92;;;7.35;;
22778;SDS011;11556;51.194;3.800;2023-03-20T08:26:32;18.27;;;6.47;;
22778;SDS011;11556;51.194;3.800;2023-03-20T08:28:58;19.25;;;6.13;;
22778;SDS011;11556;51.194;3.800;2023-03-20T08:31:24;19.63;;;5.28;;
22778;SDS011;11556;51.194;3.800;2023-03-20T08:33:50;16.35;;;5.57;;
22778;SDS011;11556;51.194;3.800;2023-03-20T08:36:16;15.82;;;5.75;;
22778;SDS011;11556;51.194;3.800;2023-03-20T08:38:44;9.80;;;4.97;;
22778;SDS011;11556;51.194;3.800;2023-03-20T08:41:10;9.95;;;4.68;;
22778;SDS011;11556;51.194;3.800;2023-03-20T08:43:36;15.82;;;6.00;;
22778;SDS011;11556;51.194;3.800;2023-03-20T08:46:02;18.55;;;5.60;;
22778;SDS011;11556;51.194;3.800;2023-03-20T08:48:28;16.27;;;5.22;;
22778;SDS011;11556;51.194;3.800;2023-03-20T08:50:54;15.82;;;5.03;;
22778;SDS011;11556;51.194;3.800;2023-03-20T08:53:20;13.55;;;4.70;;
22778;SDS011;11556;51.194;3.800;2023-03-20T08:55:49;16.63;;;6.30;;
22778;SDS011;11556;51.194;3.800;2023-03-20T08:58:15;14.98;;;5.60;;
22778;SDS011;11556;51.194;3.800;2023-03-20T09:00:42;16.73;;;5.72;;
22778;SDS011;11556;51.194;3.800;2023-03-20T09:03:14;16.90;;;7.18;;
22778;SDS011;11556;51.194;3.800;2023-03-20T09:05:44;12.38;;;4.72;;
22778;SDS011;11556;51.194;3.800;2023-03-20T09:08:11;16.52;;;6.70;;
22778;SDS011;11556;51.194;3.800;2023-03-20T09:10:36;16.02;;;5.40;;
22778;SDS011;11556;51.194;3.800;2023-03-20T09:13:02;13.05;;;5.85;;
22778;SDS011;11556;51.194;3.800;2023-03-20T09:15:28;19.70;;;6.43;;
22778;SDS011;11556;51.194;3.800;2023-03-20T09:17:54;12.93;;;5.10;;
22778;SDS011;11556;51.194;3.800;2023-03-20T09:20:20;14.55;;;4.60;;
22778;SDS011;11556;51.194;3.800;2023-03-20T09:22:45;17.90;;;5.45;;
22778;SDS011;11556;51.194;3.800;2023-03-20T09:25:11;20.00;;;5.38;;
22778;SDS011;11556;51.194;3.800;2023-03-20T09:27:37;14.73;;;5.43;;
22778;SDS011;11556;51.194;3.800;2023-03-20T09:30:04;14.55;;;4.72;;
22778;SDS011;11556;51.194;3.800;2023-03-20T09:32:31;16.42;;;4.97;;
22778;SDS011;11556;51.194;3.800;2023-03-20T09:34:57;14.85;;;4.47;;
22778;SDS011;11556;51.194;3.800;2023-03-20T09:37:23;17.50;;;5.82;;
22778;SDS011;11556;51.194;3.800;2023-03-20T09:39:48;16.45;;;4.90;;
22778;SDS011;11556;51.194;3.800;2023-03-20T09:53:58;13.48;;;5.35;;
22778;SDS011;11556;51.194;3.800;2023-03-20T09:56:31;16.75;;;6.90;;
22778;SDS011;11556;51.194;3.800;2023-03-20T09:58:58;21.13;;;7.18;;
22778;SDS011;11556;51.194;3.800;2023-03-20T10:01:29;18.50;;;6.25;;
22778;SDS011;11556;51.194;3.800;2023-03-20T10:04:22;21.00;;;5.65;;
22778;SDS011;11556;51.194;3.800;2023-03-20T10:06:51;15.57;;;5.07;;
22778;SDS011;11556;51.194;3.800;2023-03-20T10:09:25;11.93;;;5.75;;
22778;SDS011;11556;51.194;3.800;2023-03-20T10:14:49;16.55;;;5.10;;
22778;SDS011;11556;51.194;3.800;2023-03-20T10:19:57;15.65;;;5.10;;
22778;SDS011;11556;51.194;3.800;2023-03-20T10:22:31;18.25;;;5.03;;
22778;SDS011;11556;51.194;3.800;2023-03-20T10:27:51;17.55;;;4.82;;
22778;SDS011;11556;51.194;3.800;2023-03-20T10:33:11;13.90;;;5.03;;
22778;SDS011;11556;51.194;3.800;2023-03-20T10:36:00;14.13;;;5.30;;
22778;SDS011;11556;51.194;3.800;2023-03-20T10:38:35;18.00;;;4.82;;
22778;SDS011;11556;51.194;3.800;2023-03-20T10:41:08;9.32;;;4.40;;
22778;SDS011;11556;51.194;3.800;2023-03-20T10:43:39;15.50;;;5.65;;
22778;SDS011;11556;51.194;3.800;2023-03-20T10:46:08;14.70;;;5.35;;
22778;SDS011;11556;51.194;3.800;2023-03-20T10:48:47;13.85;;;5.20;;
22778;SDS011;11556;51.194;3.800;2023-03-20T10:51:33;15.25;;;5.85;;
22778;SDS011;11556;51.194;3.800;2023-03-20T10:56:55;17.55;;;5.57;;
22778;SDS011;11556;51.194;3.800;2023-03-20T11:02:08;13.25;;;5.72;;
22778;SDS011;11556;51.194;3.800;2023-03-20T11:04:38;20.67;;;5.97;;
22778;SDS011;11556;51.194;3.800;2023-03-20T11:07:23;15.35;;;5.68;;
22778;SDS011;11556;51.194;3.800;2023-03-20T11:10:12;14.65;;;5.88;;
22778;SDS011;11556;51.194;3.800;2023-03-20T11:12:42;12.00;;;5.63;;
22778;SDS011;11556;51.194;3.800;2023-03-20T11:15:26;20.48;;;5.88;;
22778;SDS011;11556;51.194;3.800;2023-03-20T11:17:58;15.93;;;5.47;;
22778;SDS011;11556;51.194;3.800;2023-03-20T11:20:26;18.83;;;5.97;;
22778;SDS011;11556;51.194;3.800;2023-03-20T11:22:58;21.23;;;7.22;;
22778;SDS011;11556;51.194;3.800;2023-03-20T11:25:30;13.35;;;5.85;;
22778;SDS011;11556;51.194;3.800;2023-03-20T11:28:19;15.48;;;5.72;;
22778;SDS011;11556;51.194;3.800;2023-03-20T11:30:44;21.60;;;5.63;;
22778;SDS011;11556;51.194;3.800;2023-03-20T11:33:11;15.48;;;5.55;;
22778;SDS011;11556;51.194;3.800;2023-03-20T11:35:39;25.55;;;9.60;;
22778;SDS011;11556;51.194;3.800;2023-03-20T11:38:14;18.55;;;6.53;;
22778;SDS011;11556;51.194;3.800;2023-03-20T11:40:43;24.25;;;6.10;;
22778;SDS011;11556;51.194;3.800;2023-03-20T11:43:13;16.83;;;5.85;;
22778;SDS011;11556;51.194;3.800;2023-03-20T11:45:47;12.68;;;5.72;;
22778;SDS011;11556;51.194;3.800;2023-03-20T11:50:59;15.90;;;5.50;;
22778;SDS011;11556;51.194;3.800;2023-03-20T11:53:30;19.98;;;6.00;;
22778;SDS011;11556;51.194;3.800;2023-03-20T11:56:10;17.90;;;5.70;;
22778;SDS011;11556;51.194;3.800;2023-03-20T11:58:50;16.58;;;5.57;;
22778;SDS011;11556;51.194;3.800;2023-03-20T12:01:40;16.38;;;5.95;;
22778;SDS011;11556;51.194;3.800;2023-03-20T12:04:16;20.58;;;6.15;;
22778;SDS011;11556;51.194;3.800;2023-03-20T12:06:59;14.25;;;5.95;;
22778;SDS011;11556;51.194;3.800;2023-03-20T12:09:48;18.48;;;5.90;;
22778;SDS011;11556;51.194;3.800;2023-03-20T12:12:17;17.83;;;6.43;;
22778;SDS011;11556;51.194;3.800;2023-03-20T12:14:50;20.98;;;6.50;;
22778;SDS011;11556;51.194;3.800;2023-03-20T12:20:04;15.60;;;6.28;;
22778;SDS011;11556;51.194;3.800;2023-03-20T12:22:52;18.65;;;6.68;;
22778;SDS011;11556;51.194;3.800;2023-03-20T12:28:35;20.23;;;6.75;;
22778;SDS011;11556;51.194;3.800;2023-03-20T12:30:48;19.02;;;6.93;;
22778;SDS011;11556;51.194;3.800;2023-03-20T12:33:20;20.38;;;6.63;;
22778;SDS011;11556;51.194;3.800;2023-03-20T12:35:55;19.25;;;6.68;;
22778;SDS011;11556;51.194;3.800;2023-03-20T12:38:31;15.45;;;6.20;;
22778;SDS011;11556;51.194;3.800;2023-03-20T12:51:49;22.55;;;8.65;;
22778;SDS011;11556;51.194;3.800;2023-03-20T12:57:22;21.00;;;5.72;;
22778;SDS011;11556;51.194;3.800;2023-03-20T13:06:19;17.30;;;6.13;;
22778;SDS011;11556;51.194;3.800;2023-03-20T13:11:33;16.80;;;5.82;;
22778;SDS011;11556;51.194;3.800;2023-03-20T13:22:19;16.27;;;5.72;;
22778;SDS011;11556;51.194;3.800;2023-03-20T13:25:00;19.55;;;6.10;;
22778;SDS011;11556;51.194;3.800;2023-03-20T13:27:51;17.50;;;6.78;;
22778;SDS011;11556;51.194;3.800;2023-03-20T13:30:38;19.42;;;5.38;;
22778;SDS011;11556;51.194;3.800;2023-03-20T13:41:46;12.85;;;5.03;;
22778;SDS011;11556;51.194;3.800;2023-03-20T13:44:13;18.88;;;6.05;;
22778;SDS011;11556;51.194;3.800;2023-03-20T13:46:46;16.57;;;6.03;;
22778;SDS011;11556;51.194;3.800;2023-03-20T13:49:30;17.35;;;5.60;;
22778;SDS011;11556;51.194;3.800;2023-03-20T14:00:58;17.45;;;6.80;;
22778;SDS011;11556;51.194;3.800;2023-03-20T14:03:37;18.45;;;6.53;;
22778;SDS011;11556;51.194;3.800;2023-03-20T14:06:15;23.27;;;8.15;;
22778;SDS011;11556;51.194;3.800;2023-03-20T14:08:46;23.65;;;7.85;;
22778;SDS011;11556;51.194;3.800;2023-03-20T14:14:06;20.52;;;6.45;;
22778;SDS011;11556;51.194;3.800;2023-03-20T14:16:39;16.42;;;5.70;;
22778;SDS011;11556;51.194;3.800;2023-03-20T14:19:06;20.55;;;5.15;;
22778;SDS011;11556;51.194;3.800;2023-03-20T14:21:54;16.13;;;5.70;;
22778;SDS011;11556;51.194;3.800;2023-03-20T14:24:21;20.05;;;5.32;;
22778;SDS011;11556;51.194;3.800;2023-03-20T14:26:49;22.40;;;6.10;;
22778;SDS011;11556;51.194;3.800;2023-03-20T14:29:20;19.25;;;6.13;;
22778;SDS011;11556;51.194;3.800;2023-03-20T14:34:47;19.25;;;5.88;;
22778;SDS011;11556;51.194;3.800;2023-03-20T14:40:04;19.45;;;5.78;;
22778;SDS011;11556;51.194;3.800;2023-03-20T14:42:58;9.45;;;4.45;;
22778;SDS011;11556;51.194;3.800;2023-03-20T14:48:07;10.77;;;3.90;;
22778;SDS011;11556;51.194;3.800;2023-03-20T14:53:52;13.95;;;4.30;;
22778;SDS011;11556;51.194;3.800;2023-03-20T14:56:24;17.20;;;4.40;;
22778;SDS011;11556;51.194;3.800;2023-03-20T14:58:56;16.70;;;3.83;;
22778;SDS011;11556;51.194;3.800;2023-03-20T15:06:51;12.85;;;3.67;;
22778;SDS011;11556;51.194;3.800;2023-03-20T15:09:23;10.77;;;3.50;;
22778;SDS011;11556;51.194;3.800;2023-03-20T15:11:51;26.95;;;9.70;;
22778;SDS011;11556;51.194;3.800;2023-03-20T15:14:19;14.23;;;5.22;;
22778;SDS011;11556;51.194;3.800;2023-03-20T15:19:21;18.20;;;5.03;;
22778;SDS011;11556;51.194;3.800;2023-03-20T15:21:47;26.20;;;10.20;;
22778;SDS011;11556;51.194;3.800;2023-03-20T15:24:23;20.58;;;6.75;;
22778;SDS011;11556;51.194;3.800;2023-03-20T15:26:53;13.93;;;4.25;;
22778;SDS011;11556;51.194;3.800;2023-03-20T15:29:23;14.98;;;3.55;;
22778;SDS011;11556;51.194;3.800;2023-03-20T15:31:50;10.55;;;3.05;;
22778;SDS011;11556;51.194;3.800;2023-03-20T15:34:26;17.13;;;4.35;;
22778;SDS011;11556;51.194;3.800;2023-03-20T15:36:58;12.18;;;3.90;;
22778;SDS011;11556;51.194;3.800;2023-03-20T15:39:27;13.88;;;5.88;;
22778;SDS011;11556;51.194;3.800;2023-03-20T15:41:58;11.32;;;3.33;;
22778;SDS011;11556;51.194;3.800;2023-03-20T15:44:34;8.90;;;3.28;;
22778;SDS011;11556;51.194;3.800;2023-03-20T15:47:23;11.85;;;3.15;;
22778;SDS011;11556;51.194;3.800;2023-03-20T15:49:49;9.55;;;3.17;;
22778;SDS011;11556;51.194;3.800;2023-03-20T15:52:30;9.52;;;3.70;;
22778;SDS011;11556;51.194;3.800;2023-03-20T15:55:04;6.65;;;2.53;;
22778;SDS011;11556;51.194;3.800;2023-03-20T15:57:36;7.60;;;2.20;;
22778;SDS011;11556;51.194;3.800;2023-03-20T16:00:04;5.80;;;2.27;;
22778;SDS011;11556;51.194;3.800;2023-03-20T16:02:34;8.18;;;2.30;;
22778;SDS011;11556;51.194;3.800;2023-03-20T16:05:01;8.45;;;2.28;;
22778;SDS011;11556;51.194;3.800;2023-03-20T16:07:28;9.27;;;2.70;;
22778;SDS011;11556;51.194;3.800;2023-03-20T16:09:56;9.32;;;2.55;;
22778;SDS011;11556;51.194;3.800;2023-03-20T16:12:23;9.70;;;2.92;;
22778;SDS011;11556;51.194;3.800;2023-03-20T16:14:50;16.00;;;3.97;;
22778;SDS011;11556;51.194;3.800;2023-03-20T16:17:19;7.65;;;3.58;;
22778;SDS011;11556;51.194;3.800;2023-03-20T16:19:46;12.05;;;3.67;;
22778;SDS011;11556;51.194;3.800;2023-03-20T16:24:40;6.80;;;3.40;;
22778;SDS011;11556;51.194;3.800;2023-03-20T16:27:11;11.85;;;4.07;;
22778;SDS011;11556;51.194;3.800;2023-03-20T16:29:49;17.00;;;3.78;;
22778;SDS011;11556;51.194;3.800;2023-03-20T16:35:15;9.55;;;3.95;;
22778;SDS011;11556;51.194;3.800;2023-03-20T16:37:57;21.80;;;8.40;;
22778;SDS011;11556;51.194;3.800;2023-03-20T16:42:56;10.18;;;3.78;;
22778;SDS011;11556;51.194;3.800;2023-03-20T16:45:36;15.93;;;4.75;;
22778;SDS011;11556;51.194;3.800;2023-03-20T16:50:34;8.98;;;3.67;;
22778;SDS011;11556;51.194;3.800;2023-03-20T16:53:02;10.00;;;3.58;;
22778;SDS011;11556;51.194;3.800;2023-03-20T16:55:44;9.30;;;3.05;;
22778;SDS011;11556;51.194;3.800;2023-03-20T16:58:22;9.45;;;3.63;;
22778;SDS011;11556;51.194;3.800;2023-03-20T17:00:53;7.55;;;2.95;;
22778;SDS011;11556;51.194;3.800;2023-03-20T17:03:25;10.43;;;3.72;;
22778;SDS011;11556;51.194;3.800;2023-03-20T17:06:05;15.23;;;3.38;;
22778;SDS011;11556;51.194;3.800;2023-03-20T17:11:09;10.15;;;3.10;;
22778;SDS011;11556;51.194;3.800;2023-03-20T17:13:37;8.02;;;3.45;;
22778;SDS011;11556;51.194;3.800;2023-03-20T17:16:05;13.25;;;3.15;;
22778;SDS011;11556;51.194;3.800;2023-03-20T17:18:31;8.55;;;2.78;;
22778;SDS011;11556;51.194;3.800;2023-03-20T17:20:59;9.85;;;3.28;;
22778;SDS011;11556;51.194;3.800;2023-03-20T17:23:25;11.57;;;4.28;;
22778;SDS011;11556;51.194;3.800;2023-03-20T17:25:51;9.68;;;3.40;;
22778;SDS011;11556;51.194;3.800;2023-03-20T17:28:22;10.57;;;3.03;;
22778;SDS011;11556;51.194;3.800;2023-03-20T17:30:51;10.88;;;3.42;;
22778;SDS011;11556;51.194;3.800;2023-03-20T17:33:18;12.15;;;4.13;;
22778;SDS011;11556;51.194;3.800;2023-03-20T17:35:44;15.02;;;5.07;;